Kenvil, New Jersey
Current Conditions -  °F | °C
As of 8:45 AM on Sunday 23 Nov 2014 (Local Time) from KMMU Reporting Station
Broken Clouds Broken Clouds  
Wind Chill: 43°   Ceiling: 9000
Heat Index: 43°   Visibility: 10mi
Dew Point: 23°   Wind: 3mph
Humidity: 46%   Direction: 250°WSW
Pressure: 30.22"   Gusts: NA
Location:  40.88°N, 74.62°W
Report Text: KMMU 231345Z 25003KT 10SM BKN090 BKN120 06/M05 A3022
Loading
Personal Weather Stations






























Interactive Weather Map New forecast layout! Learn more

10-Day Weather Forecast

Advertisements
Track Severe Weather on mobile